createdAt,value
2019-04-26T00:00:42.037Z,14.16
2019-04-26T00:03:10.306Z,13.80
2019-04-26T00:05:37.576Z,13.93
2019-04-26T00:08:04.463Z,13.72
2019-04-26T00:10:31.888Z,13.46
2019-04-26T00:13:14.285Z,13.30
2019-04-26T00:15:47.174Z,13.31
2019-04-26T00:18:15.267Z,13.53
2019-04-26T00:20:42.717Z,13.71
2019-04-26T00:23:10.808Z,13.54
2019-04-26T00:25:37.629Z,13.45
2019-04-26T00:28:05.070Z,13.72
2019-04-26T00:30:32.474Z,13.35
2019-04-26T00:32:59.966Z,13.58
2019-04-26T00:35:27.445Z,13.88
2019-04-26T00:37:54.874Z,13.42
2019-04-26T00:40:22.510Z,13.18
2019-04-26T00:42:49.848Z,13.16
2019-04-26T00:45:17.304Z,13.22
2019-04-26T00:47:44.706Z,13.30
2019-04-26T00:50:13.777Z,13.31
2019-04-26T00:52:40.978Z,13.52
2019-04-26T00:55:08.367Z,13.54
2019-04-26T00:57:35.787Z,13.55
2019-04-26T01:00:03.197Z,13.99
2019-04-26T01:02:30.614Z,14.10
2019-04-26T01:04:58.096Z,14.27
2019-04-26T01:07:25.582Z,13.97
2019-04-26T01:09:53.059Z,13.90
2019-04-26T01:12:20.539Z,13.75
2019-04-26T01:14:47.975Z,13.62
2019-04-26T01:17:16.160Z,13.58
2019-04-26T01:19:42.921Z,13.78
2019-04-26T01:22:10.387Z,13.89
2019-04-26T01:24:37.800Z,14.01
2019-04-26T01:27:05.971Z,13.88
2019-04-26T01:29:33.429Z,14.09
2019-04-26T01:32:03.181Z,13.89
2019-04-26T01:34:30.604Z,14.13
2019-04-26T01:36:58.055Z,14.17
2019-04-26T01:39:25.818Z,13.86
2019-04-26T01:41:52.892Z,13.86
2019-04-26T01:44:38.016Z,14.13
2019-04-26T01:47:06.321Z,14.03
2019-04-26T01:49:34.864Z,13.77
2019-04-26T01:52:03.976Z,14.15
2019-04-26T01:54:31.960Z,14.24
2019-04-26T01:56:58.895Z,14.29
2019-04-26T01:59:27.316Z,13.98
2019-04-26T02:02:08.738Z,14.17
2019-04-26T02:04:36.805Z,14.12
2019-04-26T02:07:04.277Z,14.32
2019-04-26T02:09:32.654Z,14.19
2019-04-26T02:11:59.228Z,13.93
2019-04-26T02:14:26.935Z,14.17
2019-04-26T02:16:54.232Z,14.23
2019-04-26T02:19:21.705Z,14.37
2019-04-26T02:22:04.069Z,14.36
2019-04-26T02:24:32.278Z,14.15
2019-04-26T02:26:59.704Z,14.39
2019-04-26T02:29:27.137Z,14.49
2019-04-26T02:31:54.579Z,14.64
2019-04-26T02:34:22.050Z,14.43
2019-04-26T02:36:57.707Z,14.13
2019-04-26T02:39:18.612Z,13.95
2019-04-26T02:41:46.070Z,14.18
2019-04-26T02:44:13.492Z,13.99
2019-04-26T02:46:44.859Z,13.59
2019-04-26T02:49:17.778Z,13.57
2019-04-26T02:52:00.101Z,13.86
2019-04-26T02:54:44.334Z,13.28
2019-04-26T02:57:11.792Z,13.36
2019-04-26T02:59:40.829Z,13.30
2019-04-26T03:02:06.678Z,13.02
2019-04-26T03:04:34.656Z,13.11
2019-04-26T03:07:03.899Z,13.29
2019-04-26T03:09:31.262Z,13.07
2019-04-26T03:12:01.319Z,13.31
2019-04-26T03:14:36.536Z,12.81
2019-04-26T03:17:05.075Z,13.12
2019-04-26T03:19:40.946Z,12.78
2019-04-26T03:22:24.192Z,12.40
2019-04-26T03:25:12.489Z,12.58
2019-04-26T03:27:58.396Z,12.50
2019-04-26T03:30:54.296Z,12.69
2019-04-26T03:33:38.933Z,12.47
2019-04-26T03:36:12.525Z,12.72
2019-04-26T03:38:58.485Z,12.64
2019-04-26T03:44:37.175Z,12.44
2019-04-26T03:47:04.640Z,12.60
2019-04-26T03:49:39.245Z,12.86
2019-04-26T03:52:09.955Z,12.57
2019-04-26T03:54:39.270Z,12.89
2019-04-26T03:57:13.668Z,12.80
2019-04-26T03:59:45.895Z,12.20
2019-04-26T04:02:24.061Z,12.43
2019-04-26T04:04:53.314Z,12.19
2019-04-26T04:07:35.924Z,12.42
2019-04-26T04:09:49.489Z,12.50
2019-04-26T04:12:17.991Z,12.34
2019-04-26T04:14:47.159Z,12.11
2019-04-26T04:17:18.294Z,11.85
2019-04-26T04:19:52.814Z,11.70
2019-04-26T04:22:20.275Z,12.18
2019-04-26T04:24:50.618Z,12.18
2019-04-26T04:27:22.548Z,11.81
2019-04-26T04:29:55.467Z,11.82
2019-04-26T04:32:34.743Z,12.06
2019-04-26T04:35:06.155Z,11.86
2019-04-26T04:37:29.698Z,11.77
2019-04-26T04:40:16.463Z,11.93
2019-04-26T04:43:15.844Z,11.66
2019-04-26T04:45:55.750Z,11.50
2019-04-26T04:48:45.187Z,11.76
2019-04-26T04:51:15.818Z,11.51
2019-04-26T04:53:46.529Z,11.87
2019-04-26T04:59:24.120Z,12.10
2019-04-26T05:02:20.115Z,12.19
2019-04-26T05:04:59.812Z,11.87
2019-04-26T05:07:30.758Z,12.00
2019-04-26T05:10:15.755Z,11.84
2019-04-26T05:12:54.350Z,11.57
2019-04-26T05:15:28.672Z,11.89
2019-04-26T05:17:56.116Z,12.07
2019-04-26T05:20:27.401Z,12.40
2019-04-26T05:23:16.114Z,12.66
2019-04-26T05:26:11.396Z,12.88
2019-04-26T05:29:01.400Z,12.98
2019-04-26T05:31:30.671Z,13.14
2019-04-26T05:34:07.848Z,12.68
2019-04-26T05:36:54.794Z,12.78
2019-04-26T05:39:26.069Z,12.98
2019-04-26T05:42:05.216Z,13.06
2019-04-26T05:45:01.864Z,13.18
2019-04-26T05:47:29.336Z,12.77
2019-04-26T05:50:05.401Z,12.68
2019-04-26T05:52:41.755Z,12.28
2019-04-26T05:55:33.606Z,12.03
2019-04-26T05:58:05.868Z,11.98
2019-04-26T06:00:36.018Z,11.87
2019-04-26T06:03:07.324Z,11.76
2019-04-26T06:05:49.752Z,11.76
2019-04-26T06:08:33.730Z,12.07
2019-04-26T06:11:05.349Z,12.22
2019-04-26T06:13:38.474Z,12.20
2019-04-26T06:16:28.437Z,11.83
2019-04-26T06:19:13.423Z,12.05
2019-04-26T06:21:45.499Z,11.88
2019-04-26T06:24:25.436Z,12.27
2019-04-26T06:27:07.501Z,12.09
2019-04-26T06:29:27.443Z,12.16
2019-04-26T06:32:04.657Z,12.40
2019-04-26T06:34:39.056Z,12.39
2019-04-26T06:37:09.028Z,12.28
2019-04-26T06:39:46.348Z,12.09
2019-04-26T06:42:21.445Z,12.19
2019-04-26T06:45:05.903Z,11.88
2019-04-26T06:47:45.626Z,12.44
2019-04-26T06:50:15.874Z,12.18
2019-04-26T06:52:59.025Z,12.46
2019-04-26T06:55:28.070Z,12.46
2019-04-26T06:57:59.550Z,12.39
2019-04-26T07:00:25.953Z,12.36
2019-04-26T07:03:13.906Z,12.71
2019-04-26T07:05:45.020Z,12.30
2019-04-26T07:08:40.318Z,12.14
2019-04-26T07:11:09.627Z,12.02
2019-04-26T07:13:54.604Z,12.07
2019-04-26T07:16:40.714Z,12.46
2019-04-26T07:19:08.254Z,11.61
2019-04-26T07:21:39.570Z,11.92
2019-04-26T07:24:11.217Z,11.69
2019-04-26T07:26:41.238Z,11.85
2019-04-26T07:29:37.281Z,11.47
2019-04-26T07:32:11.536Z,11.75
2019-04-26T07:34:49.117Z,11.98
2019-04-26T07:37:28.379Z,11.79
2019-04-26T07:40:27.268Z,11.77
2019-04-26T07:43:13.860Z,11.55
2019-04-26T07:45:52.076Z,11.90
2019-04-26T07:48:21.321Z,11.79
2019-04-26T07:51:00.760Z,11.68
2019-04-26T07:53:28.795Z,11.95
2019-04-26T07:56:09.331Z,11.78
2019-04-26T07:58:45.163Z,11.75
2019-04-26T08:01:25.663Z,11.65
2019-04-26T08:03:56.812Z,11.41
2019-04-26T08:06:39.994Z,11.64
2019-04-26T08:09:07.557Z,11.65
2019-04-26T08:11:37.515Z,12.00
2019-04-26T08:14:14.901Z,12.15
2019-04-26T08:16:47.481Z,12.02
2019-04-26T08:19:14.922Z,11.72
2019-04-26T08:21:47.345Z,11.82
2019-04-26T08:24:10.324Z,11.96
2019-04-26T08:26:38.031Z,11.80
2019-04-26T08:29:06.570Z,11.71
2019-04-26T08:31:32.924Z,11.68
2019-04-26T08:34:00.394Z,12.11
2019-04-26T08:36:28.700Z,11.83
2019-04-26T08:38:56.770Z,12.04
2019-04-26T08:41:24.259Z,11.97
2019-04-26T08:43:55.799Z,11.88
2019-04-26T08:46:23.641Z,12.05
2019-04-26T08:49:06.396Z,12.04
2019-04-26T08:51:33.869Z,12.03
2019-04-26T08:54:01.422Z,11.77
2019-04-26T08:56:30.640Z,12.22
2019-04-26T08:58:58.909Z,11.92
2019-04-26T09:01:26.379Z,11.80
2019-04-26T09:03:57.744Z,12.11
2019-04-26T09:06:27.719Z,12.17
2019-04-26T09:08:55.185Z,11.96
2019-04-26T09:11:26.466Z,11.95
2019-04-26T09:13:50.129Z,11.70
2019-04-26T09:16:17.593Z,11.72
2019-04-26T09:18:52.421Z,12.08
2019-04-26T09:21:13.289Z,12.31
2019-04-26T09:23:50.862Z,12.41
2019-04-26T09:26:18.682Z,12.58
2019-04-26T09:28:52.879Z,12.46
2019-04-26T09:31:24.644Z,12.25
2019-04-26T09:33:52.122Z,11.95
2019-04-26T09:36:19.588Z,12.00
2019-04-26T09:38:47.053Z,11.83
2019-04-26T09:41:14.468Z,11.84
2019-04-26T09:43:42.230Z,12.07
2019-04-26T09:46:15.296Z,11.99
2019-04-26T09:48:43.677Z,12.41
2019-04-26T09:51:11.176Z,11.98
2019-04-26T09:53:39.540Z,12.19
2019-04-26T09:56:06.104Z,12.57
2019-04-26T09:58:33.570Z,12.38
2019-04-26T10:01:01.000Z,12.33
2019-04-26T10:03:28.444Z,12.33
2019-04-26T10:05:57.050Z,12.38
2019-04-26T10:08:23.418Z,12.37
2019-04-26T10:10:51.724Z,12.42
2019-04-26T10:13:21.869Z,12.43
2019-04-26T10:15:53.562Z,12.41
2019-04-26T10:18:24.531Z,12.45
2019-04-26T10:20:48.527Z,12.56
2019-04-26T10:23:16.491Z,12.39
2019-04-26T10:25:47.449Z,12.61
2019-04-26T10:28:11.822Z,12.58
2019-04-26T10:30:42.361Z,12.34
2019-04-26T10:33:06.503Z,12.64
2019-04-26T10:35:33.988Z,12.63
2019-04-26T10:38:01.459Z,12.43
2019-04-26T10:40:35.315Z,12.50
2019-04-26T10:42:56.429Z,12.66
2019-04-26T10:45:23.931Z,12.79
2019-04-26T10:47:51.371Z,12.47
2019-04-26T10:50:18.859Z,12.37
2019-04-26T10:52:54.089Z,12.55
2019-04-26T10:55:34.578Z,12.60
2019-04-26T10:58:02.856Z,12.62
2019-04-26T11:00:31.227Z,12.49
2019-04-26T11:03:00.043Z,12.36
2019-04-26T11:05:26.118Z,12.54
2019-04-26T11:07:54.257Z,12.68
2019-04-26T11:10:24.310Z,12.51
2019-04-26T11:12:49.277Z,12.68
2019-04-26T11:15:17.666Z,12.93
2019-04-26T11:17:46.057Z,12.68
2019-04-26T11:20:12.608Z,13.08
2019-04-26T11:22:40.052Z,12.88
2019-04-26T11:25:07.567Z,12.80
2019-04-26T11:27:34.994Z,12.98
2019-04-26T11:30:11.626Z,13.23
2019-04-26T11:32:33.111Z,13.30
2019-04-26T11:34:58.758Z,13.01
2019-04-26T11:37:24.893Z,13.01
2019-04-26T11:39:52.335Z,13.07
2019-04-26T11:42:20.084Z,13.32
2019-04-26T11:44:48.136Z,13.44
2019-04-26T11:47:15.584Z,13.56
2019-04-26T11:49:43.058Z,13.45
2019-04-26T11:52:10.473Z,13.22
2019-04-26T11:54:37.941Z,13.10
2019-04-26T11:57:08.182Z,13.21
2019-04-26T11:59:32.981Z,13.23
2019-04-26T12:02:00.470Z,13.49
2019-04-26T12:04:29.408Z,13.77
2019-04-26T12:07:13.575Z,13.68
2019-04-26T12:09:41.603Z,13.78
2019-04-26T12:12:12.547Z,13.26
2019-04-26T12:14:36.520Z,13.60
2019-04-26T12:17:03.996Z,13.45
2019-04-26T12:19:31.493Z,13.57
2019-04-26T12:21:58.947Z,13.54
2019-04-26T12:24:29.678Z,13.67
2019-04-26T12:26:56.001Z,14.05
2019-04-26T12:29:22.332Z,14.04
2019-04-26T12:31:49.758Z,14.00
2019-04-26T12:34:17.861Z,13.88
2019-04-26T12:36:44.790Z,14.20
2019-04-26T12:39:12.211Z,13.90
2019-04-26T12:41:40.866Z,13.94
2019-04-26T12:44:07.180Z,14.09
2019-04-26T12:46:44.580Z,13.90
2019-04-26T12:49:12.103Z,14.28
2019-04-26T12:51:42.776Z,14.24
2019-04-26T12:54:08.233Z,14.46
2019-04-26T12:56:34.730Z,14.19
2019-04-26T12:59:02.165Z,14.54
2019-04-26T13:01:29.632Z,14.55
2019-04-26T13:04:03.602Z,14.41
2019-04-26T13:06:31.936Z,14.30
2019-04-26T13:08:57.745Z,14.03
2019-04-26T13:11:48.793Z,14.09
2019-04-26T13:14:07.604Z,14.40
2019-04-26T13:16:36.851Z,14.24
2019-04-26T13:19:04.267Z,14.30
2019-04-26T13:21:33.077Z,14.25
2019-04-26T13:24:00.292Z,14.32
2019-04-26T13:26:30.316Z,14.54
2019-04-26T13:28:57.254Z,14.68
2019-04-26T13:31:22.443Z,14.50
2019-04-26T13:33:50.345Z,14.60
2019-04-26T13:36:17.836Z,14.84
2019-04-26T13:38:45.484Z,14.55
2019-04-26T13:41:13.890Z,14.45
2019-04-26T13:43:41.422Z,14.59
2019-04-26T13:48:50.557Z,14.27
2019-04-26T13:51:18.046Z,14.43
2019-04-26T13:53:45.509Z,14.50
2019-04-26T13:56:13.014Z,14.77
2019-04-26T13:58:40.561Z,14.69
2019-04-26T14:01:08.004Z,14.90
2019-04-26T14:03:35.959Z,14.90
2019-04-26T14:06:03.425Z,15.01
2019-04-26T14:08:31.584Z,15.18
2019-04-26T14:10:59.053Z,15.33
2019-04-26T14:13:26.509Z,15.22
2019-04-26T14:15:53.964Z,15.14
2019-04-26T14:18:21.409Z,15.07
2019-04-26T14:20:48.995Z,14.88
2019-04-26T14:23:21.981Z,14.99
2019-04-26T14:26:07.007Z,14.77
2019-04-26T14:28:33.718Z,14.96
2019-04-26T14:31:01.172Z,14.77
2019-04-26T14:33:30.890Z,15.10
2019-04-26T14:35:56.118Z,14.86
2019-04-26T14:38:28.099Z,15.22
2019-04-26T14:41:03.297Z,14.86
2019-04-26T14:43:22.344Z,15.06
2019-04-26T14:45:55.679Z,14.91
2019-04-26T14:48:20.623Z,15.34
2019-04-26T14:50:41.411Z,15.63
2019-04-26T14:53:08.943Z,15.63
2019-04-26T14:55:36.967Z,15.85
2019-04-26T14:58:04.482Z,15.95
2019-04-26T15:00:33.846Z,15.64
2019-04-26T15:03:03.316Z,15.62
2019-04-26T15:05:33.411Z,15.67
2019-04-26T15:08:03.892Z,15.87
2019-04-26T15:10:43.828Z,15.67
2019-04-26T15:13:14.318Z,15.81
2019-04-26T15:15:32.056Z,15.77
2019-04-26T15:17:59.421Z,15.72
2019-04-26T15:20:24.333Z,16.13
2019-04-26T15:22:50.879Z,16.29
2019-04-26T15:25:18.331Z,16.11
2019-04-26T15:27:45.801Z,16.42
2019-04-26T15:30:13.381Z,16.46
2019-04-26T15:32:42.588Z,16.26
2019-04-26T15:35:08.333Z,16.26
2019-04-26T15:37:35.796Z,15.87
2019-04-26T15:40:09.798Z,15.78
2019-04-26T15:42:39.622Z,15.88
2019-04-26T15:45:07.378Z,15.74
2019-04-26T15:47:53.531Z,15.57
2019-04-26T15:50:23.483Z,15.87
2019-04-26T15:52:52.452Z,16.27
2019-04-26T15:55:18.452Z,16.43
2019-04-26T15:57:45.861Z,16.76
2019-04-26T16:00:13.306Z,17.03
2019-04-26T16:02:42.650Z,17.28
2019-04-26T16:05:08.304Z,16.83
2019-04-26T16:07:35.770Z,17.13
2019-04-26T16:10:04.957Z,17.08
2019-04-26T16:12:32.453Z,17.01
2019-04-26T16:14:59.863Z,17.32
2019-04-26T16:17:27.357Z,17.59
2019-04-26T16:19:56.201Z,17.43
2019-04-26T16:22:25.874Z,17.70
2019-04-26T16:24:51.167Z,17.65
2019-04-26T16:27:17.261Z,18.14
2019-04-26T16:29:59.576Z,18.38
2019-04-26T16:32:37.185Z,17.88
2019-04-26T16:35:04.780Z,18.14
2019-04-26T16:37:33.095Z,18.33
2019-04-26T16:39:59.804Z,18.21
2019-04-26T16:42:27.234Z,18.41
2019-04-26T16:44:55.208Z,18.02
2019-04-26T16:47:23.397Z,17.97
2019-04-26T16:49:49.650Z,17.71
2019-04-26T16:52:17.298Z,17.50
2019-04-26T16:54:44.925Z,17.62
2019-04-26T16:57:12.601Z,17.18
2019-04-26T16:59:47.515Z,16.92
2019-04-26T17:02:07.449Z,16.85
2019-04-26T17:04:36.216Z,16.89
2019-04-26T17:07:04.963Z,17.17
2019-04-26T17:09:53.879Z,16.73
2019-04-26T17:11:57.468Z,16.72
2019-04-26T17:14:25.248Z,16.43
2019-04-26T17:16:53.247Z,16.88
2019-04-26T17:19:20.216Z,16.64
2019-04-26T17:21:47.712Z,16.73
2019-04-26T17:24:18.140Z,16.68
2019-04-26T17:27:00.028Z,16.87
2019-04-26T17:29:27.516Z,16.75
2019-04-26T17:31:55.340Z,16.75
2019-04-26T17:34:28.868Z,16.51
2019-04-26T17:36:51.853Z,16.51
2019-04-26T17:39:18.480Z,16.56
2019-04-26T17:41:50.754Z,16.82
2019-04-26T17:44:13.393Z,16.98
2019-04-26T17:46:40.191Z,17.16
2019-04-26T17:49:07.641Z,17.15
2019-04-26T17:51:41.739Z,16.79
2019-04-26T17:54:21.122Z,16.90
2019-04-26T17:56:31.447Z,16.92
2019-04-26T17:58:57.737Z,16.87
2019-04-26T18:01:41.852Z,17.05
2019-04-26T18:03:55.726Z,16.99
2019-04-26T18:06:29.568Z,17.20
2019-04-26T18:08:52.767Z,17.18
2019-04-26T18:11:19.779Z,17.21
2019-04-26T18:13:43.052Z,17.23
2019-04-26T18:16:11.444Z,17.22
2019-04-26T18:18:50.068Z,16.88
2019-04-26T18:21:20.355Z,16.69
2019-04-26T18:23:48.665Z,16.24
2019-04-26T18:26:17.329Z,16.68
2019-04-26T18:28:46.150Z,16.78
2019-04-26T18:31:08.480Z,16.25
2019-04-26T18:33:35.965Z,15.98
2019-04-26T18:36:04.466Z,15.63
2019-04-26T18:38:31.805Z,15.97
2019-04-26T18:41:01.279Z,16.33
2019-04-26T18:43:26.785Z,15.51
2019-04-26T18:45:54.231Z,15.57
2019-04-26T18:48:23.505Z,15.94
2019-04-26T18:50:49.094Z,15.63
2019-04-26T18:53:36.560Z,15.89
2019-04-26T18:55:59.308Z,15.84
2019-04-26T18:58:30.327Z,15.61
2019-04-26T19:00:57.355Z,15.50
2019-04-26T19:03:24.681Z,15.67
2019-04-26T19:05:50.172Z,15.70
2019-04-26T19:08:20.826Z,15.94
2019-04-26T19:10:57.959Z,15.85
2019-04-26T19:13:18.877Z,15.31
2019-04-26T19:15:51.902Z,15.18
2019-04-26T19:18:21.940Z,15.56
2019-04-26T19:20:47.598Z,15.61
2019-04-26T19:23:15.062Z,15.55
2019-04-26T19:25:42.542Z,15.67
2019-04-26T19:28:09.958Z,15.88
2019-04-26T19:30:40.123Z,15.84
2019-04-26T19:33:04.873Z,15.88
2019-04-26T19:35:32.880Z,15.67
2019-04-26T19:38:00.770Z,15.37
2019-04-26T19:40:28.210Z,15.16
2019-04-26T19:42:57.584Z,14.92
2019-04-26T19:45:26.543Z,14.97
2019-04-26T19:48:18.905Z,14.88
2019-04-26T19:50:48.994Z,14.39
2019-04-26T19:53:16.522Z,14.47
2019-04-26T19:55:47.436Z,14.68
2019-04-26T19:58:20.067Z,14.58
2019-04-26T20:00:43.516Z,14.57
2019-04-26T20:03:13.398Z,14.62
2019-04-26T20:05:40.431Z,14.68
2019-04-26T20:08:05.985Z,14.75
2019-04-26T20:10:34.587Z,14.67
2019-04-26T20:12:59.082Z,14.57
2019-04-26T20:15:28.647Z,14.78
2019-04-26T20:17:59.794Z,14.63
2019-04-26T20:20:23.747Z,14.43
2019-04-26T20:22:51.381Z,14.34
2019-04-26T20:25:16.876Z,14.08
2019-04-26T20:27:44.296Z,14.10
2019-04-26T20:30:12.571Z,14.13
2019-04-26T20:32:44.074Z,14.02
2019-04-26T20:35:13.213Z,14.08
2019-04-26T20:37:41.546Z,14.35
2019-04-26T20:40:18.491Z,13.91
2019-04-26T20:42:34.850Z,14.29
2019-04-26T20:45:04.469Z,14.01
2019-04-26T20:47:29.781Z,14.15
2019-04-26T20:50:01.271Z,14.30
2019-04-26T20:52:25.001Z,14.02
2019-04-26T20:54:54.076Z,14.36
2019-04-26T20:57:19.569Z,14.41
2019-04-26T20:59:47.012Z,14.38
2019-04-26T21:02:16.262Z,14.46
2019-04-26T21:04:44.548Z,14.51
2019-04-26T21:07:11.341Z,14.49
2019-04-26T21:09:40.829Z,14.46
2019-04-26T21:12:07.946Z,14.39
2019-04-26T21:14:32.155Z,14.43
2019-04-26T21:16:59.694Z,14.40
2019-04-26T21:19:27.101Z,14.12
2019-04-26T21:21:54.519Z,14.38
2019-04-26T21:24:23.579Z,14.11
2019-04-26T21:26:51.350Z,13.98
2019-04-26T21:29:20.560Z,13.88
2019-04-26T21:31:47.136Z,14.11
2019-04-26T21:34:24.751Z,13.92
2019-04-26T21:37:03.980Z,14.17
2019-04-26T21:39:33.841Z,13.93
2019-04-26T21:42:00.201Z,14.13
2019-04-26T21:44:27.672Z,14.05
2019-04-26T21:46:58.822Z,14.00
2019-04-26T21:49:24.358Z,14.09
2019-04-26T21:51:52.206Z,14.14
2019-04-26T21:54:19.411Z,13.98
2019-04-26T21:56:48.531Z,13.97
2019-04-26T21:59:13.852Z,13.86
2019-04-26T22:01:40.760Z,13.98
2019-04-26T22:04:08.206Z,13.88
2019-04-26T22:06:35.610Z,13.78
2019-04-26T22:09:08.407Z,13.91
2019-04-26T22:11:35.852Z,13.98
2019-04-26T22:14:03.339Z,13.96
2019-04-26T22:16:35.946Z,13.76
2019-04-26T22:19:15.011Z,13.66
2019-04-26T22:21:44.307Z,13.43
2019-04-26T22:24:17.494Z,13.26
2019-04-26T22:26:48.030Z,13.17
2019-04-26T22:29:16.585Z,12.95
2019-04-26T22:31:41.402Z,12.38
2019-04-26T22:34:08.840Z,12.51
2019-04-26T22:36:35.711Z,12.59
2019-04-26T22:39:03.250Z,13.01
2019-04-26T22:41:29.811Z,12.94
2019-04-26T22:43:58.187Z,12.94
2019-04-26T22:46:44.450Z,13.14
2019-04-26T22:49:01.388Z,13.30
2019-04-26T22:51:28.577Z,13.20
2019-04-26T22:53:53.420Z,13.12
2019-04-26T22:56:23.226Z,13.14
2019-04-26T22:58:49.628Z,13.21
2019-04-26T23:01:17.098Z,13.53
2019-04-26T23:03:46.455Z,13.53
2019-04-26T23:06:12.945Z,12.90
2019-04-26T23:08:39.442Z,13.30
2019-04-26T23:11:09.253Z,13.48
2019-04-26T23:13:44.628Z,13.35
2019-04-26T23:16:14.262Z,13.33
2019-04-26T23:19:00.886Z,13.45
2019-04-26T23:21:29.114Z,13.48
2019-04-26T23:23:56.518Z,13.48
2019-04-26T23:26:23.995Z,13.58
2019-04-26T23:28:51.402Z,13.63
2019-04-26T23:31:18.837Z,13.71
2019-04-26T23:33:46.285Z,13.69
2019-04-26T23:36:13.751Z,13.57
2019-04-26T23:38:41.174Z,13.66
2019-04-26T23:41:08.647Z,13.67
2019-04-26T23:43:36.137Z,13.64
2019-04-26T23:46:03.587Z,13.73
2019-04-26T23:48:31.044Z,13.78
2019-04-26T23:50:59.887Z,13.80
2019-04-26T23:53:25.923Z,13.86
2019-04-26T23:55:53.374Z,13.93
2019-04-26T23:58:20.822Z,13.89
